sensor_id;sensor_type;location;lat;lon;timestamp;noise_LAeq;noise_LA_min;noise_LA_max;noise_LA01;noise_LA95
66747;Laerm;53658;50.742;10.864;2024-02-28T00:01:23;38.19;34.69;40.98;;
66747;Laerm;53658;50.742;10.864;2024-02-28T00:03:48;38.06;34.69;40.43;;
66747;Laerm;53658;50.742;10.864;2024-02-28T00:06:17;38.06;34.69;40.62;;
66747;Laerm;53658;50.742;10.864;2024-02-28T00:08:44;38.02;34.69;40.53;;
66747;Laerm;53658;50.742;10.864;2024-02-28T00:11:09;38.10;34.31;40.71;;
66747;Laerm;53658;50.742;10.864;2024-02-28T00:13:35;38.09;34.69;40.53;;
66747;Laerm;53658;50.742;10.864;2024-02-28T00:16:01;38.06;33.90;40.62;;
66747;Laerm;53658;50.742;10.864;2024-02-28T00:18:27;38.05;34.31;40.62;;
66747;Laerm;53658;50.742;10.864;2024-02-28T00:20:53;38.00;33.90;40.53;;
66747;Laerm;53658;50.742;10.864;2024-02-28T00:23:19;37.97;34.69;40.53;;
66747;Laerm;53658;50.742;10.864;2024-02-28T00:25:46;37.95;34.69;40.53;;
66747;Laerm;53658;50.742;10.864;2024-02-28T00:28:12;37.94;34.31;40.33;;
66747;Laerm;53658;50.742;10.864;2024-02-28T00:30:38;37.96;33.90;40.33;;
66747;Laerm;53658;50.742;10.864;2024-02-28T00:33:03;37.89;33.90;40.23;;
66747;Laerm;53658;50.742;10.864;2024-02-28T00:35:33;37.96;34.69;40.13;;
66747;Laerm;53658;50.742;10.864;2024-02-28T00:38:00;37.99;34.69;40.43;;
66747;Laerm;53658;50.742;10.864;2024-02-28T00:40:26;38.01;33.90;40.33;;
66747;Laerm;53658;50.742;10.864;2024-02-28T00:42:52;38.02;34.31;40.71;;
66747;Laerm;53658;50.742;10.864;2024-02-28T00:45:18;38.02;33.44;40.53;;
66747;Laerm;53658;50.742;10.864;2024-02-28T00:47:44;38.01;34.31;40.43;;
66747;Laerm;53658;50.742;10.864;2024-02-28T00:50:10;38.02;32.93;40.33;;
66747;Laerm;53658;50.742;10.864;2024-02-28T00:52:37;38.03;35.04;40.62;;
66747;Laerm;53658;50.742;10.864;2024-02-28T00:55:04;38.03;34.31;40.62;;
66747;Laerm;53658;50.742;10.864;2024-02-28T00:57:30;38.04;34.31;40.43;;
66747;Laerm;53658;50.742;10.864;2024-02-28T00:59:56;38.09;33.44;40.80;;
66747;Laerm;53658;50.742;10.864;2024-02-28T01:02:22;38.13;33.90;40.80;;
66747;Laerm;53658;50.742;10.864;2024-02-28T01:04:48;38.08;34.69;40.43;;
66747;Laerm;53658;50.742;10.864;2024-02-28T01:07:14;38.06;34.69;40.33;;
66747;Laerm;53658;50.742;10.864;2024-02-28T01:09:40;38.05;34.69;40.62;;
66747;Laerm;53658;50.742;10.864;2024-02-28T01:12:06;38.04;33.90;40.71;;
66747;Laerm;53658;50.742;10.864;2024-02-28T01:14:32;38.06;34.31;40.80;;
66747;Laerm;53658;50.742;10.864;2024-02-28T01:16:58;38.03;34.31;40.62;;
66747;Laerm;53658;50.742;10.864;2024-02-28T01:19:23;38.05;34.69;40.43;;
66747;Laerm;53658;50.742;10.864;2024-02-28T01:21:49;37.99;34.31;40.43;;
66747;Laerm;53658;50.742;10.864;2024-02-28T01:24:15;38.03;34.31;40.62;;
66747;Laerm;53658;50.742;10.864;2024-02-28T01:26:41;37.99;34.31;40.80;;
66747;Laerm;53658;50.742;10.864;2024-02-28T01:29:07;38.07;34.31;40.23;;
66747;Laerm;53658;50.742;10.864;2024-02-28T01:31:33;38.04;34.31;40.62;;
66747;Laerm;53658;50.742;10.864;2024-02-28T01:33:59;38.01;34.31;40.43;;
66747;Laerm;53658;50.742;10.864;2024-02-28T01:36:24;38.02;34.69;40.62;;
66747;Laerm;53658;50.742;10.864;2024-02-28T01:38:52;38.02;34.31;40.62;;
66747;Laerm;53658;50.742;10.864;2024-02-28T01:41:17;38.04;34.31;40.53;;
66747;Laerm;53658;50.742;10.864;2024-02-28T01:43:43;38.04;35.36;40.43;;
66747;Laerm;53658;50.742;10.864;2024-02-28T01:46:25;38.09;34.69;40.53;;
66747;Laerm;53658;50.742;10.864;2024-02-28T01:48:53;38.10;34.69;40.53;;
66747;Laerm;53658;50.742;10.864;2024-02-28T01:51:24;38.03;34.31;40.43;;
66747;Laerm;53658;50.742;10.864;2024-02-28T01:53:54;38.07;34.69;40.43;;
66747;Laerm;53658;50.742;10.864;2024-02-28T01:56:23;38.08;34.31;40.33;;
66747;Laerm;53658;50.742;10.864;2024-02-28T01:58:49;38.06;33.90;40.53;;
66747;Laerm;53658;50.742;10.864;2024-02-28T02:01:16;38.14;35.04;40.80;;
66747;Laerm;53658;50.742;10.864;2024-02-28T02:03:48;38.20;35.04;40.53;;
66747;Laerm;53658;50.742;10.864;2024-02-28T02:06:14;38.13;34.69;40.71;;
66747;Laerm;53658;50.742;10.864;2024-02-28T02:08:41;38.11;34.69;40.80;;
66747;Laerm;53658;50.742;10.864;2024-02-28T02:11:08;38.08;33.90;40.80;;
66747;Laerm;53658;50.742;10.864;2024-02-28T02:13:34;38.13;34.31;40.71;;
66747;Laerm;53658;50.742;10.864;2024-02-28T02:16:01;38.13;35.04;40.62;;
66747;Laerm;53658;50.742;10.864;2024-02-28T02:18:27;38.13;35.04;40.53;;
66747;Laerm;53658;50.742;10.864;2024-02-28T02:20:59;38.08;34.69;40.98;;
66747;Laerm;53658;50.742;10.864;2024-02-28T02:23:27;38.09;34.31;40.80;;
66747;Laerm;53658;50.742;10.864;2024-02-28T02:25:53;38.08;34.31;40.53;;
66747;Laerm;53658;50.742;10.864;2024-02-28T02:28:19;38.10;34.69;40.43;;
66747;Laerm;53658;50.742;10.864;2024-02-28T02:30:45;38.13;35.04;40.62;;
66747;Laerm;53658;50.742;10.864;2024-02-28T02:33:12;38.05;34.69;40.71;;
66747;Laerm;53658;50.742;10.864;2024-02-28T02:35:38;38.08;34.69;40.36;;
66747;Laerm;53658;50.742;10.864;2024-02-28T02:38:04;38.03;35.04;41.14;;
66747;Laerm;53658;50.742;10.864;2024-02-28T02:40:30;38.02;34.69;40.71;;
66747;Laerm;53658;50.742;10.864;2024-02-28T02:42:56;38.02;34.69;40.71;;
66747;Laerm;53658;50.742;10.864;2024-02-28T02:45:22;38.02;35.04;40.43;;
66747;Laerm;53658;50.742;10.864;2024-02-28T02:47:48;38.05;34.69;40.43;;
66747;Laerm;53658;50.742;10.864;2024-02-28T02:50:13;38.06;33.90;40.43;;
66747;Laerm;53658;50.742;10.864;2024-02-28T02:52:39;38.02;32.93;40.23;;
66747;Laerm;53658;50.742;10.864;2024-02-28T02:55:06;38.04;34.31;40.23;;
66747;Laerm;53658;50.742;10.864;2024-02-28T02:57:33;38.07;34.69;40.62;;
66747;Laerm;53658;50.742;10.864;2024-02-28T02:59:59;38.12;33.90;40.98;;
66747;Laerm;53658;50.742;10.864;2024-02-28T03:02:24;38.07;34.69;40.43;;
66747;Laerm;53658;50.742;10.864;2024-02-28T03:04:50;38.10;35.04;40.98;;
66747;Laerm;53658;50.742;10.864;2024-02-28T03:07:16;38.14;34.31;40.53;;
66747;Laerm;53658;50.742;10.864;2024-02-28T03:09:42;38.07;34.69;40.71;;
66747;Laerm;53658;50.742;10.864;2024-02-28T03:12:08;38.18;34.69;40.62;;
66747;Laerm;53658;50.742;10.864;2024-02-28T03:14:35;38.24;34.69;40.80;;
66747;Laerm;53658;50.742;10.864;2024-02-28T03:17:01;42.11;31.68;76.08;;
66747;Laerm;53658;50.742;10.864;2024-02-28T03:19:27;38.11;34.31;41.06;;
66747;Laerm;53658;50.742;10.864;2024-02-28T03:21:53;38.12;35.04;41.14;;
66747;Laerm;53658;50.742;10.864;2024-02-28T03:24:19;38.18;34.69;40.53;;
66747;Laerm;53658;50.742;10.864;2024-02-28T03:26:45;38.15;33.90;40.53;;
66747;Laerm;53658;50.742;10.864;2024-02-28T03:29:10;38.13;34.31;40.62;;
66747;Laerm;53658;50.742;10.864;2024-02-28T03:31:36;38.11;33.90;41.61;;
66747;Laerm;53658;50.742;10.864;2024-02-28T03:34:02;38.12;34.69;41.06;;
66747;Laerm;53658;50.742;10.864;2024-02-28T03:36:29;38.15;34.69;40.23;;
66747;Laerm;53658;50.742;10.864;2024-02-28T03:38:54;38.12;34.69;40.71;;
66747;Laerm;53658;50.742;10.864;2024-02-28T03:41:20;38.11;34.69;40.43;;
66747;Laerm;53658;50.742;10.864;2024-02-28T03:43:46;38.14;34.31;40.89;;
66747;Laerm;53658;50.742;10.864;2024-02-28T03:46:12;38.13;35.04;40.71;;
66747;Laerm;53658;50.742;10.864;2024-02-28T03:48:38;38.12;34.69;40.43;;
66747;Laerm;53658;50.742;10.864;2024-02-28T03:51:03;38.11;34.31;40.98;;
66747;Laerm;53658;50.742;10.864;2024-02-28T03:53:30;38.04;34.31;40.80;;
66747;Laerm;53658;50.742;10.864;2024-02-28T03:55:56;38.06;34.31;40.62;;
66747;Laerm;53658;50.742;10.864;2024-02-28T03:58:21;38.07;34.31;40.62;;
66747;Laerm;53658;50.742;10.864;2024-02-28T04:00:47;38.03;34.31;40.71;;
66747;Laerm;53658;50.742;10.864;2024-02-28T04:03:13;38.01;34.69;40.23;;
66747;Laerm;53658;50.742;10.864;2024-02-28T04:05:42;38.03;33.44;40.45;;
66747;Laerm;53658;50.742;10.864;2024-02-28T04:08:08;38.06;34.69;40.23;;
66747;Laerm;53658;50.742;10.864;2024-02-28T04:10:34;38.02;34.69;40.53;;
66747;Laerm;53658;50.742;10.864;2024-02-28T04:13:00;37.95;33.90;40.23;;
66747;Laerm;53658;50.742;10.864;2024-02-28T04:15:25;37.97;34.31;40.53;;
66747;Laerm;53658;50.742;10.864;2024-02-28T04:17:52;37.96;34.31;40.53;;
66747;Laerm;53658;50.742;10.864;2024-02-28T04:20:17;37.97;34.31;40.23;;
66747;Laerm;53658;50.742;10.864;2024-02-28T04:22:43;37.96;34.31;40.71;;
66747;Laerm;53658;50.742;10.864;2024-02-28T04:25:10;37.92;34.69;40.71;;
66747;Laerm;53658;50.742;10.864;2024-02-28T04:27:36;37.92;34.31;40.33;;
66747;Laerm;53658;50.742;10.864;2024-02-28T04:30:03;37.95;34.31;40.43;;
66747;Laerm;53658;50.742;10.864;2024-02-28T04:32:29;37.98;33.44;40.53;;
66747;Laerm;53658;50.742;10.864;2024-02-28T04:34:55;37.97;34.69;40.53;;
66747;Laerm;53658;50.742;10.864;2024-02-28T04:37:21;37.98;33.90;40.33;;
66747;Laerm;53658;50.742;10.864;2024-02-28T04:39:47;37.98;34.69;40.53;;
66747;Laerm;53658;50.742;10.864;2024-02-28T04:42:13;37.98;34.69;40.62;;
66747;Laerm;53658;50.742;10.864;2024-02-28T04:44:39;37.98;34.69;40.53;;
66747;Laerm;53658;50.742;10.864;2024-02-28T04:47:05;38.02;34.31;40.43;;
66747;Laerm;53658;50.742;10.864;2024-02-28T04:49:31;38.04;33.90;40.33;;
66747;Laerm;53658;50.742;10.864;2024-02-28T04:51:56;38.04;34.69;40.71;;
66747;Laerm;53658;50.742;10.864;2024-02-28T04:54:22;38.03;34.69;40.33;;
66747;Laerm;53658;50.742;10.864;2024-02-28T04:56:48;38.08;34.69;40.23;;
66747;Laerm;53658;50.742;10.864;2024-02-28T04:59:14;38.01;35.04;40.80;;
66747;Laerm;53658;50.742;10.864;2024-02-28T05:01:40;38.01;34.31;40.53;;
66747;Laerm;53658;50.742;10.864;2024-02-28T05:04:08;38.04;33.90;40.62;;
66747;Laerm;53658;50.742;10.864;2024-02-28T05:06:35;38.03;34.31;40.80;;
66747;Laerm;53658;50.742;10.864;2024-02-28T05:09:01;38.05;34.31;40.23;;
66747;Laerm;53658;50.742;10.864;2024-02-28T05:11:27;38.09;34.69;40.71;;
66747;Laerm;53658;50.742;10.864;2024-02-28T05:13:53;38.06;34.31;40.80;;
66747;Laerm;53658;50.742;10.864;2024-02-28T05:16:19;38.07;35.04;40.43;;
66747;Laerm;53658;50.742;10.864;2024-02-28T05:18:45;38.03;34.31;40.62;;
66747;Laerm;53658;50.742;10.864;2024-02-28T05:21:11;38.06;34.31;40.33;;
66747;Laerm;53658;50.742;10.864;2024-02-28T05:23:37;38.04;34.69;40.71;;
66747;Laerm;53658;50.742;10.864;2024-02-28T05:26:03;38.02;33.90;40.71;;
66747;Laerm;53658;50.742;10.864;2024-02-28T05:28:33;37.99;34.31;40.53;;
66747;Laerm;53658;50.742;10.864;2024-02-28T05:31:02;38.03;34.69;40.43;;
66747;Laerm;53658;50.742;10.864;2024-02-28T05:33:29;37.99;34.69;40.43;;
66747;Laerm;53658;50.742;10.864;2024-02-28T05:35:55;38.01;33.90;40.62;;
66747;Laerm;53658;50.742;10.864;2024-02-28T05:38:21;38.02;34.69;40.23;;
66747;Laerm;53658;50.742;10.864;2024-02-28T05:40:47;38.01;35.04;40.62;;
66747;Laerm;53658;50.742;10.864;2024-02-28T05:43:13;38.00;33.90;40.53;;
66747;Laerm;53658;50.742;10.864;2024-02-28T05:45:39;38.01;34.34;40.43;;
66747;Laerm;53658;50.742;10.864;2024-02-28T05:48:05;38.06;34.69;40.43;;
66747;Laerm;53658;50.742;10.864;2024-02-28T05:50:31;38.06;34.69;40.98;;
66747;Laerm;53658;50.742;10.864;2024-02-28T05:52:58;38.03;33.90;40.53;;
66747;Laerm;53658;50.742;10.864;2024-02-28T05:55:24;38.05;34.31;40.33;;
66747;Laerm;53658;50.742;10.864;2024-02-28T05:57:51;38.04;35.01;40.53;;
66747;Laerm;53658;50.742;10.864;2024-02-28T06:00:18;38.05;34.69;40.43;;
66747;Laerm;53658;50.742;10.864;2024-02-28T06:02:44;38.03;34.69;40.62;;
66747;Laerm;53658;50.742;10.864;2024-02-28T06:05:10;38.02;34.31;40.80;;
66747;Laerm;53658;50.742;10.864;2024-02-28T06:07:36;38.01;34.31;40.80;;
66747;Laerm;53658;50.742;10.864;2024-02-28T06:10:02;38.01;34.69;40.43;;
66747;Laerm;53658;50.742;10.864;2024-02-28T06:12:27;38.04;35.04;40.89;;
66747;Laerm;53658;50.742;10.864;2024-02-28T06:14:53;38.00;34.31;40.53;;
66747;Laerm;53658;50.742;10.864;2024-02-28T06:17:20;38.00;34.31;40.43;;
66747;Laerm;53658;50.742;10.864;2024-02-28T06:19:47;38.01;34.69;40.71;;
66747;Laerm;53658;50.742;10.864;2024-02-28T06:22:13;38.04;34.34;40.33;;
66747;Laerm;53658;50.742;10.864;2024-02-28T06:24:39;38.01;34.69;40.43;;
66747;Laerm;53658;50.742;10.864;2024-02-28T06:27:05;38.05;34.31;40.89;;
66747;Laerm;53658;50.742;10.864;2024-02-28T06:29:31;38.02;33.90;40.62;;
66747;Laerm;53658;50.742;10.864;2024-02-28T06:31:56;37.92;34.31;40.43;;
66747;Laerm;53658;50.742;10.864;2024-02-28T06:34:22;37.89;34.31;40.98;;
66747;Laerm;53658;50.742;10.864;2024-02-28T06:36:48;37.92;34.69;40.62;;
66747;Laerm;53658;50.742;10.864;2024-02-28T06:39:14;37.97;33.55;40.33;;
66747;Laerm;53658;50.742;10.864;2024-02-28T06:41:40;38.00;34.69;40.43;;
66747;Laerm;53658;50.742;10.864;2024-02-28T06:44:06;38.05;33.90;40.36;;
66747;Laerm;53658;50.742;10.864;2024-02-28T06:46:33;38.13;34.69;40.62;;
66747;Laerm;53658;50.742;10.864;2024-02-28T06:48:59;38.18;35.04;40.62;;
66747;Laerm;53658;50.742;10.864;2024-02-28T06:51:24;38.20;34.31;40.80;;
66747;Laerm;53658;50.742;10.864;2024-02-28T06:53:50;38.24;34.69;40.71;;
66747;Laerm;53658;50.742;10.864;2024-02-28T06:56:16;38.27;35.04;40.71;;
66747;Laerm;53658;50.742;10.864;2024-02-28T06:58:42;38.28;34.69;40.71;;
66747;Laerm;53658;50.742;10.864;2024-02-28T07:01:08;38.30;35.36;40.43;;
66747;Laerm;53658;50.742;10.864;2024-02-28T07:03:34;38.35;35.04;40.53;;
66747;Laerm;53658;50.742;10.864;2024-02-28T07:05:59;38.43;35.66;40.71;;
66747;Laerm;53658;50.742;10.864;2024-02-28T07:08:25;38.49;35.04;40.62;;
66747;Laerm;53658;50.742;10.864;2024-02-28T07:10:51;38.63;35.66;40.98;;
66747;Laerm;53658;50.742;10.864;2024-02-28T07:13:20;38.68;35.94;40.53;;
66747;Laerm;53658;50.742;10.864;2024-02-28T07:15:47;38.71;35.66;40.89;;
66747;Laerm;53658;50.742;10.864;2024-02-28T07:18:13;38.78;36.45;40.80;;
66747;Laerm;53658;50.742;10.864;2024-02-28T07:20:38;38.86;36.20;40.71;;
66747;Laerm;53658;50.742;10.864;2024-02-28T07:23:04;38.96;36.20;40.80;;
66747;Laerm;53658;50.742;10.864;2024-02-28T07:25:30;38.95;36.45;40.62;;
66747;Laerm;53658;50.742;10.864;2024-02-28T07:27:58;38.99;36.20;40.98;;
66747;Laerm;53658;50.742;10.864;2024-02-28T07:30:28;39.00;36.69;40.89;;
66747;Laerm;53658;50.742;10.864;2024-02-28T07:32:54;39.02;36.91;40.80;;
66747;Laerm;53658;50.742;10.864;2024-02-28T07:35:20;39.04;36.45;40.89;;
66747;Laerm;53658;50.742;10.864;2024-02-28T07:37:47;39.07;36.91;40.89;;
66747;Laerm;53658;50.742;10.864;2024-02-28T07:40:13;38.99;36.91;40.98;;
66747;Laerm;53658;50.742;10.864;2024-02-28T07:42:39;38.93;36.45;40.89;;
66747;Laerm;53658;50.742;10.864;2024-02-28T07:45:05;38.92;35.66;40.98;;
66747;Laerm;53658;50.742;10.864;2024-02-28T07:47:34;38.92;36.69;40.89;;
66747;Laerm;53658;50.742;10.864;2024-02-28T07:50:00;38.90;36.91;40.71;;
66747;Laerm;53658;50.742;10.864;2024-02-28T07:52:26;38.93;36.45;40.62;;
66747;Laerm;53658;50.742;10.864;2024-02-28T07:54:52;38.95;36.45;40.71;;
66747;Laerm;53658;50.742;10.864;2024-02-28T07:57:17;39.00;36.20;46.10;;
66747;Laerm;53658;50.742;10.864;2024-02-28T07:59:44;39.19;36.91;41.14;;
66747;Laerm;53658;50.742;10.864;2024-02-28T08:02:10;39.32;36.91;40.98;;
66747;Laerm;53658;50.742;10.864;2024-02-28T08:04:39;39.37;37.12;40.89;;
66747;Laerm;53658;50.742;10.864;2024-02-28T08:07:06;39.51;37.32;41.06;;
66747;Laerm;53658;50.742;10.864;2024-02-28T08:09:32;39.62;37.88;41.22;;
66747;Laerm;53658;50.742;10.864;2024-02-28T08:11:58;39.65;37.88;41.30;;
66747;Laerm;53658;50.742;10.864;2024-02-28T08:14:24;39.81;37.88;41.38;;
66747;Laerm;53658;50.742;10.864;2024-02-28T08:16:50;39.93;38.21;41.41;;
66747;Laerm;53658;50.742;10.864;2024-02-28T08:19:16;40.02;38.37;41.53;;
66747;Laerm;53658;50.742;10.864;2024-02-28T08:21:43;40.06;38.05;41.53;;
66747;Laerm;53658;50.742;10.864;2024-02-28T08:24:09;40.09;38.37;42.03;;
66747;Laerm;53658;50.742;10.864;2024-02-28T08:26:34;40.23;38.52;41.61;;
66747;Laerm;53658;50.742;10.864;2024-02-28T08:29:01;40.25;38.37;41.82;;
66747;Laerm;53658;50.742;10.864;2024-02-28T08:31:28;40.31;38.37;41.88;;
66747;Laerm;53658;50.742;10.864;2024-02-28T08:33:53;40.31;38.52;41.68;;
66747;Laerm;53658;50.742;10.864;2024-02-28T08:36:21;40.49;38.52;42.03;;
66747;Laerm;53658;50.742;10.864;2024-02-28T08:38:47;40.59;38.81;42.22;;
66747;Laerm;53658;50.742;10.864;2024-02-28T08:41:13;40.63;38.37;42.16;;
66747;Laerm;53658;50.742;10.864;2024-02-28T08:43:39;40.62;38.67;42.29;;
66747;Laerm;53658;50.742;10.864;2024-02-28T08:46:06;40.59;38.67;41.96;;
66747;Laerm;53658;50.742;10.864;2024-02-28T08:48:34;40.61;38.52;42.35;;
66747;Laerm;53658;50.742;10.864;2024-02-28T08:51:00;40.60;38.52;42.03;;
66747;Laerm;53658;50.742;10.864;2024-02-28T08:53:26;40.56;38.67;42.03;;
66747;Laerm;53658;50.742;10.864;2024-02-28T08:55:52;40.82;39.08;42.19;;
66747;Laerm;53658;50.742;10.864;2024-02-28T08:58:17;40.98;39.08;42.30;;
66747;Laerm;53658;50.742;10.864;2024-02-28T09:00:43;41.12;39.46;42.53;;
66747;Laerm;53658;50.742;10.864;2024-02-28T09:03:09;41.16;39.46;42.59;;
66747;Laerm;53658;50.742;10.864;2024-02-28T09:05:35;41.14;39.08;42.53;;
66747;Laerm;53658;50.742;10.864;2024-02-28T09:08:01;41.15;39.34;43.34;;
66747;Laerm;53658;50.742;10.864;2024-02-28T09:10:27;41.15;39.34;42.71;;
66747;Laerm;53658;50.742;10.864;2024-02-28T09:12:55;41.10;39.34;42.47;;
66747;Laerm;53658;50.742;10.864;2024-02-28T09:15:21;41.05;39.08;42.69;;
66747;Laerm;53658;50.742;10.864;2024-02-28T09:17:47;41.03;39.08;42.41;;
66747;Laerm;53658;50.742;10.864;2024-02-28T09:20:13;40.98;39.21;42.41;;
66747;Laerm;53658;50.742;10.864;2024-02-28T09:22:38;40.93;38.95;42.59;;
66747;Laerm;53658;50.742;10.864;2024-02-28T09:25:06;40.79;38.67;42.88;;
66747;Laerm;53658;50.742;10.864;2024-02-28T09:27:35;40.70;38.05;42.35;;
66747;Laerm;53658;50.742;10.864;2024-02-28T09:30:02;40.52;38.05;42.09;;
66747;Laerm;53658;50.742;10.864;2024-02-28T09:32:28;40.27;37.52;42.09;;
66747;Laerm;53658;50.742;10.864;2024-02-28T09:34:54;39.92;37.12;41.96;;
66747;Laerm;53658;50.742;10.864;2024-02-28T09:37:19;39.89;37.12;41.82;;
66747;Laerm;53658;50.742;10.864;2024-02-28T09:39:50;39.89;36.45;43.24;;
66747;Laerm;53658;50.742;10.864;2024-02-28T09:42:16;39.70;36.69;41.82;;
66747;Laerm;53658;50.742;10.864;2024-02-28T09:44:43;39.22;35.66;41.53;;
66747;Laerm;53658;50.742;10.864;2024-02-28T09:47:09;38.96;35.36;41.61;;
66747;Laerm;53658;50.742;10.864;2024-02-28T09:49:35;39.41;33.44;66.33;;
66747;Laerm;53658;50.742;10.864;2024-02-28T09:52:04;38.82;35.31;42.09;;
66747;Laerm;53658;50.742;10.864;2024-02-28T09:54:30;38.68;34.31;40.98;;
66747;Laerm;53658;50.742;10.864;2024-02-28T09:56:56;38.54;33.90;41.06;;
66747;Laerm;53658;50.742;10.864;2024-02-28T09:59:24;38.47;33.44;41.75;;
66747;Laerm;53658;50.742;10.864;2024-02-28T10:01:56;38.40;33.90;40.98;;
66747;Laerm;53658;50.742;10.864;2024-02-28T10:04:24;38.37;32.35;41.41;;
66747;Laerm;53658;50.742;10.864;2024-02-28T10:06:51;38.34;33.90;41.06;;
66747;Laerm;53658;50.742;10.864;2024-02-28T10:09:17;38.33;33.90;42.59;;
66747;Laerm;53658;50.742;10.864;2024-02-28T10:11:43;38.36;33.90;41.38;;
66747;Laerm;53658;50.742;10.864;2024-02-28T10:14:18;38.34;33.44;41.22;;
66747;Laerm;53658;50.742;10.864;2024-02-28T10:16:47;38.24;34.31;41.22;;
66747;Laerm;53658;50.742;10.864;2024-02-28T10:19:12;38.29;34.31;41.61;;
66747;Laerm;53658;50.742;10.864;2024-02-28T10:21:38;38.19;33.44;40.89;;
66747;Laerm;53658;50.742;10.864;2024-02-28T10:24:05;38.22;34.31;40.98;;
66747;Laerm;53658;50.742;10.864;2024-02-28T10:26:31;38.33;33.90;42.16;;
66747;Laerm;53658;50.742;10.864;2024-02-28T10:29:03;38.26;34.69;40.89;;
66747;Laerm;53658;50.742;10.864;2024-02-28T10:31:32;38.25;32.93;40.80;;
66747;Laerm;53658;50.742;10.864;2024-02-28T10:34:00;38.28;33.44;41.14;;
66747;Laerm;53658;50.742;10.864;2024-02-28T10:36:31;38.19;32.93;42.76;;
66747;Laerm;53658;50.742;10.864;2024-02-28T10:38:57;38.05;32.93;43.14;;
66747;Laerm;53658;50.742;10.864;2024-02-28T10:41:26;37.85;31.68;45.20;;
66747;Laerm;53658;50.742;10.864;2024-02-28T10:43:54;37.81;32.93;40.53;;
66747;Laerm;53658;50.742;10.864;2024-02-28T10:46:20;37.90;32.93;40.53;;
66747;Laerm;53658;50.742;10.864;2024-02-28T10:48:49;38.05;33.90;40.89;;
66747;Laerm;53658;50.742;10.864;2024-02-28T10:51:24;38.11;34.31;40.63;;
66747;Laerm;53658;50.742;10.864;2024-02-28T10:54:06;38.10;32.93;42.16;;
66747;Laerm;53658;50.742;10.864;2024-02-28T10:56:33;37.86;32.93;40.80;;
66747;Laerm;53658;50.742;10.864;2024-02-28T10:58:59;38.06;33.44;42.03;;
66747;Laerm;53658;50.742;10.864;2024-02-28T11:01:26;37.95;33.09;40.80;;
66747;Laerm;53658;50.742;10.864;2024-02-28T11:03:53;37.95;33.44;40.62;;
66747;Laerm;53658;50.742;10.864;2024-02-28T11:06:21;38.02;33.44;41.30;;
66747;Laerm;53658;50.742;10.864;2024-02-28T11:08:48;37.94;32.93;42.98;;
66747;Laerm;53658;50.742;10.864;2024-02-28T11:11:19;37.92;32.35;40.71;;
66747;Laerm;53658;50.742;10.864;2024-02-28T11:13:55;37.87;32.93;40.98;;
66747;Laerm;53658;50.742;10.864;2024-02-28T11:16:32;37.91;33.44;41.06;;
66747;Laerm;53658;50.742;10.864;2024-02-28T11:18:59;37.79;32.35;40.98;;
66747;Laerm;53658;50.742;10.864;2024-02-28T11:21:26;37.82;30.89;40.71;;
66747;Laerm;53658;50.742;10.864;2024-02-28T11:23:59;37.78;30.89;42.16;;
66747;Laerm;53658;50.742;10.864;2024-02-28T11:26:25;37.79;32.35;41.06;;
66747;Laerm;53658;50.742;10.864;2024-02-28T11:28:51;37.91;32.93;42.47;;
66747;Laerm;53658;50.742;10.864;2024-02-28T11:31:17;37.85;32.93;42.22;;
66747;Laerm;53658;50.742;10.864;2024-02-28T11:33:44;37.93;32.93;41.96;;
66747;Laerm;53658;50.742;10.864;2024-02-28T11:36:12;37.77;32.93;41.46;;
66747;Laerm;53658;50.742;10.864;2024-02-28T11:38:39;37.65;32.93;41.22;;
66747;Laerm;53658;50.742;10.864;2024-02-28T11:41:06;37.78;31.68;43.72;;
66747;Laerm;53658;50.742;10.864;2024-02-28T11:43:33;37.73;30.89;42.65;;
66747;Laerm;53658;50.742;10.864;2024-02-28T11:46:00;37.82;32.35;43.94;;
66747;Laerm;53658;50.742;10.864;2024-02-28T11:48:27;37.54;29.92;40.33;;
66747;Laerm;53658;50.742;10.864;2024-02-28T11:50:56;37.55;32.35;40.62;;
66747;Laerm;53658;50.742;10.864;2024-02-28T11:53:25;38.00;32.35;45.33;;
66747;Laerm;53658;50.742;10.864;2024-02-28T11:55:53;37.70;31.68;41.61;;
66747;Laerm;53658;50.742;10.864;2024-02-28T11:58:19;37.99;31.68;43.34;;
66747;Laerm;53658;50.742;10.864;2024-02-28T12:00:47;37.79;33.44;41.06;;
66747;Laerm;53658;50.742;10.864;2024-02-28T12:03:13;37.68;32.35;42.76;;
66747;Laerm;53658;50.742;10.864;2024-02-28T12:05:42;37.48;32.35;40.89;;
66747;Laerm;53658;50.742;10.864;2024-02-28T12:08:08;37.42;31.68;40.33;;
66747;Laerm;53658;50.742;10.864;2024-02-28T12:10:35;37.47;32.35;40.33;;
66747;Laerm;53658;50.742;10.864;2024-02-28T12:13:01;37.56;30.89;40.53;;
66747;Laerm;53658;50.742;10.864;2024-02-28T12:15:30;37.72;31.68;41.03;;
66747;Laerm;53658;50.742;10.864;2024-02-28T12:17:56;37.61;32.93;40.43;;
66747;Laerm;53658;50.742;10.864;2024-02-28T12:20:23;37.81;31.68;42.88;;
66747;Laerm;53658;50.742;10.864;2024-02-28T12:22:49;37.66;31.68;42.35;;
66747;Laerm;53658;50.742;10.864;2024-02-28T12:25:15;37.52;31.68;41.14;;
66747;Laerm;53658;50.742;10.864;2024-02-28T12:27:41;37.39;32.35;41.22;;
66747;Laerm;53658;50.742;10.864;2024-02-28T12:30:07;37.34;32.35;40.43;;
66747;Laerm;53658;50.742;10.864;2024-02-28T12:32:33;37.32;31.68;40.53;;
66747;Laerm;53658;50.742;10.864;2024-02-28T12:35:00;37.35;31.68;40.33;;
66747;Laerm;53658;50.742;10.864;2024-02-28T12:37:25;37.41;30.89;40.98;;
66747;Laerm;53658;50.742;10.864;2024-02-28T12:39:51;37.52;31.68;41.68;;
66747;Laerm;53658;50.742;10.864;2024-02-28T12:42:18;37.43;30.89;41.14;;
66747;Laerm;53658;50.742;10.864;2024-02-28T12:44:44;37.62;31.68;44.47;;
66747;Laerm;53658;50.742;10.864;2024-02-28T12:47:13;37.41;30.89;40.98;;
66747;Laerm;53658;50.742;10.864;2024-02-28T12:49:38;37.43;32.35;40.54;;
66747;Laerm;53658;50.742;10.864;2024-02-28T12:52:04;37.45;31.68;41.89;;
66747;Laerm;53658;50.742;10.864;2024-02-28T12:54:30;37.34;32.00;40.53;;
66747;Laerm;53658;50.742;10.864;2024-02-28T12:56:56;37.40;31.68;41.30;;
66747;Laerm;53658;50.742;10.864;2024-02-28T12:59:22;37.29;29.92;39.92;;
66747;Laerm;53658;50.742;10.864;2024-02-28T13:01:48;37.23;30.89;40.23;;
66747;Laerm;53658;50.742;10.864;2024-02-28T13:04:14;37.29;32.35;40.43;;
66747;Laerm;53658;50.742;10.864;2024-02-28T13:06:39;37.29;28.67;40.23;;
66747;Laerm;53658;50.742;10.864;2024-02-28T13:09:05;37.24;32.35;40.13;;
66747;Laerm;53658;50.742;10.864;2024-02-28T13:11:38;37.21;30.89;40.43;;
66747;Laerm;53658;50.742;10.864;2024-02-28T13:14:04;37.24;30.89;40.53;;
66747;Laerm;53658;50.742;10.864;2024-02-28T13:16:30;37.33;31.68;41.89;;
66747;Laerm;53658;50.742;10.864;2024-02-28T13:18:56;37.22;29.92;40.13;;
66747;Laerm;53658;50.742;10.864;2024-02-28T13:21:22;37.13;30.89;40.43;;
66747;Laerm;53658;50.742;10.864;2024-02-28T13:23:47;37.16;31.68;40.23;;
66747;Laerm;53658;50.742;10.864;2024-02-28T13:26:13;37.23;32.00;40.43;;
66747;Laerm;53658;50.742;10.864;2024-02-28T13:28:44;37.21;28.67;40.80;;